createdAt,value
2018-12-07T00:00:38.696Z,7.93
2018-12-07T00:03:10.271Z,7.70
2018-12-07T00:05:42.748Z,8.20
2018-12-07T00:08:14.283Z,7.20
2018-12-07T00:10:46.129Z,7.40
2018-12-07T00:13:17.442Z,8.17
2018-12-07T00:15:50.214Z,8.17
2018-12-07T00:18:21.610Z,7.40
2018-12-07T00:20:55.570Z,7.17
2018-12-07T00:23:26.552Z,6.80
2018-12-07T00:26:01.267Z,6.60
2018-12-07T00:28:32.603Z,6.33
2018-12-07T00:31:04.047Z,7.23
2018-12-07T00:33:35.562Z,6.87
2018-12-07T00:36:07.917Z,6.83
2018-12-07T00:38:39.345Z,6.13
2018-12-07T00:41:13.944Z,6.70
2018-12-07T00:43:45.107Z,6.37
2018-12-07T00:46:16.810Z,5.90
2018-12-07T00:48:48.452Z,5.67
2018-12-07T00:51:20.667Z,5.60
2018-12-07T00:53:51.539Z,5.73
2018-12-07T00:56:23.290Z,5.30
2018-12-07T00:58:54.737Z,5.30
2018-12-07T01:01:26.377Z,4.60
2018-12-07T01:03:59.197Z,4.77
2018-12-07T01:06:30.697Z,4.67
2018-12-07T01:09:01.772Z,3.53
2018-12-07T01:11:34.634Z,4.27
2018-12-07T01:14:06.145Z,4.13
2018-12-07T01:16:38.070Z,3.80
2018-12-07T01:19:09.779Z,3.60
2018-12-07T01:21:41.115Z,3.97
2018-12-07T01:24:13.036Z,3.80
2018-12-07T01:26:47.087Z,3.67
2018-12-07T01:29:18.393Z,3.37
2018-12-07T01:31:53.678Z,3.77
2018-12-07T01:34:27.588Z,4.07
2018-12-07T01:36:59.999Z,3.73
2018-12-07T01:39:31.333Z,4.13
2018-12-07T01:42:06.497Z,4.03
2018-12-07T01:44:37.555Z,3.67
2018-12-07T01:47:09.301Z,3.80
2018-12-07T01:49:40.703Z,3.73
2018-12-07T01:52:12.693Z,4.20
2018-12-07T01:54:45.009Z,3.70
2018-12-07T01:57:17.691Z,4.00
2018-12-07T01:59:51.457Z,4.17
2018-12-07T02:02:23.807Z,4.57
2018-12-07T02:04:55.291Z,4.47
2018-12-07T02:07:33.539Z,4.50
2018-12-07T02:10:05.461Z,4.07
2018-12-07T02:12:37.937Z,4.33
2018-12-07T02:15:08.993Z,4.50
2018-12-07T02:17:41.297Z,4.37
2018-12-07T02:20:12.962Z,4.10
2018-12-07T02:22:44.430Z,4.13
2018-12-07T02:25:16.219Z,3.80
2018-12-07T02:27:54.994Z,3.27
2018-12-07T02:30:26.757Z,3.43
2018-12-07T02:33:00.909Z,3.20
2018-12-07T02:35:33.670Z,2.90
2018-12-07T02:38:06.310Z,2.93
2018-12-07T02:40:38.224Z,2.43
2018-12-07T02:43:11.972Z,2.30
2018-12-07T02:45:45.423Z,2.20
2018-12-07T02:48:19.704Z,2.00
2018-12-07T02:50:50.872Z,1.40
2018-12-07T02:53:22.532Z,1.43
2018-12-07T02:55:53.540Z,1.40
2018-12-07T02:58:28.490Z,1.23
2018-12-07T03:00:59.609Z,1.30
2018-12-07T03:03:34.652Z,1.60
2018-12-07T03:06:05.494Z,1.57
2018-12-07T03:08:37.755Z,1.50
2018-12-07T03:11:11.023Z,1.73
2018-12-07T03:13:44.810Z,1.57
2018-12-07T03:16:16.153Z,1.50
2018-12-07T03:18:51.268Z,1.50
2018-12-07T03:21:22.383Z,1.50
2018-12-07T03:23:54.149Z,1.60
2018-12-07T03:26:25.186Z,1.40
2018-12-07T03:28:57.997Z,1.43
2018-12-07T03:31:29.580Z,1.50
2018-12-07T03:34:02.450Z,1.40
2018-12-07T03:36:33.887Z,1.20
2018-12-07T03:39:06.068Z,1.33
2018-12-07T03:41:39.521Z,1.83
2018-12-07T03:44:11.260Z,1.10
2018-12-07T03:46:42.507Z,1.30
2018-12-07T03:49:16.603Z,1.00
2018-12-07T03:51:47.541Z,0.97
2018-12-07T03:54:22.428Z,1.10
2018-12-07T03:56:53.614Z,1.10
2018-12-07T03:59:25.615Z,1.20
2018-12-07T04:01:59.705Z,1.07
2018-12-07T04:04:31.902Z,0.83
2018-12-07T04:07:02.903Z,0.80
2018-12-07T04:09:34.923Z,0.90
2018-12-07T04:12:05.932Z,0.90
2018-12-07T04:14:40.232Z,1.10
2018-12-07T04:17:13.713Z,1.03
2018-12-07T04:19:47.758Z,0.80
2018-12-07T04:22:20.950Z,1.10
2018-12-07T04:24:52.847Z,1.30
2018-12-07T04:27:24.549Z,1.00
2018-12-07T04:30:07.644Z,1.10
2018-12-07T04:32:39.187Z,1.00
2018-12-07T04:35:13.197Z,0.90
2018-12-07T04:37:44.969Z,1.00
2018-12-07T04:40:16.697Z,1.00
2018-12-07T04:42:48.251Z,1.07
2018-12-07T04:45:20.241Z,0.90
2018-12-07T04:47:51.557Z,0.90
2018-12-07T04:50:23.707Z,0.97
2018-12-07T04:52:54.827Z,1.00
2018-12-07T04:55:26.899Z,1.20
2018-12-07T04:57:57.979Z,0.87
2018-12-07T05:00:30.189Z,0.93
2018-12-07T05:03:01.462Z,0.87
2018-12-07T05:05:37.508Z,1.07
2018-12-07T05:08:08.722Z,1.00
2018-12-07T05:10:40.782Z,1.17
2018-12-07T05:13:12.662Z,1.17
2018-12-07T05:15:46.196Z,1.30
2018-12-07T05:18:18.027Z,1.10
2018-12-07T05:20:49.586Z,1.53
2018-12-07T05:23:23.631Z,1.63
2018-12-07T05:25:56.163Z,1.20
2018-12-07T05:28:27.434Z,1.53
2018-12-07T05:30:59.204Z,1.50
2018-12-07T05:33:30.141Z,1.70
2018-12-07T05:36:04.333Z,1.50
2018-12-07T05:38:37.794Z,1.40
2018-12-07T05:41:10.204Z,1.70
2018-12-07T05:43:49.215Z,1.40
2018-12-07T05:46:20.931Z,1.20
2018-12-07T05:48:52.559Z,1.30
2018-12-07T05:51:24.641Z,1.50
2018-12-07T05:53:56.197Z,1.20
2018-12-07T05:56:28.273Z,1.20
2018-12-07T05:59:02.074Z,1.13
2018-12-07T06:01:36.673Z,1.30
2018-12-07T06:04:12.822Z,1.17
2018-12-07T06:06:45.351Z,1.40
2018-12-07T06:09:18.910Z,1.50
2018-12-07T06:11:51.735Z,1.50
2018-12-07T06:14:25.868Z,1.80
2018-12-07T06:16:57.907Z,1.50
2018-12-07T06:19:28.951Z,1.90
2018-12-07T06:22:07.778Z,1.63
2018-12-07T06:24:41.257Z,1.93
2018-12-07T06:27:15.960Z,1.63
2018-12-07T06:29:47.136Z,1.70
2018-12-07T06:32:22.032Z,1.60
2018-12-07T06:34:52.950Z,1.77
2018-12-07T06:37:24.484Z,1.73
2018-12-07T06:40:11.178Z,1.90
2018-12-07T06:42:46.662Z,1.70
2018-12-07T06:45:18.417Z,1.90
2018-12-07T06:47:50.254Z,1.90
2018-12-07T06:50:23.901Z,1.67
2018-12-07T06:52:56.398Z,1.50
2018-12-07T06:55:31.868Z,1.70
2018-12-07T06:58:13.074Z,1.60
2018-12-07T07:00:45.030Z,1.63
2018-12-07T07:03:17.277Z,1.70
2018-12-07T07:05:49.078Z,1.80
2018-12-07T07:08:22.566Z,1.50
2018-12-07T07:10:54.392Z,1.37
2018-12-07T07:13:28.171Z,1.53
2018-12-07T07:15:59.468Z,1.70
2018-12-07T07:18:37.276Z,1.60
2018-12-07T07:21:10.976Z,1.90
2018-12-07T07:23:45.262Z,1.70
2018-12-07T07:26:17.276Z,1.93
2018-12-07T07:28:49.013Z,2.03
2018-12-07T07:31:20.509Z,2.13
2018-12-07T07:33:55.347Z,2.00
2018-12-07T07:36:27.031Z,1.90
2018-12-07T07:39:07.965Z,2.27
2018-12-07T07:41:40.529Z,1.80
2018-12-07T07:49:18.067Z,1.73
2018-12-07T07:51:51.912Z,1.90
2018-12-07T07:54:27.197Z,2.27
2018-12-07T07:56:58.885Z,2.10
2018-12-07T07:59:32.174Z,2.20
2018-12-07T08:02:03.190Z,2.57
2018-12-07T08:04:34.891Z,2.60
2018-12-07T08:07:06.497Z,2.67
2018-12-07T08:09:40.806Z,2.37
2018-12-07T08:12:18.160Z,2.40
2018-12-07T08:14:59.982Z,2.30
2018-12-07T08:17:31.663Z,2.27
2018-12-07T08:20:06.186Z,2.20
2018-12-07T08:22:38.136Z,2.33
2018-12-07T08:25:12.677Z,2.43
2018-12-07T08:27:49.971Z,1.97
2018-12-07T08:30:22.622Z,2.90
2018-12-07T08:32:57.218Z,2.30
2018-12-07T08:35:31.417Z,2.27
2018-12-07T08:38:03.643Z,2.50
2018-12-07T08:40:44.387Z,2.37
2018-12-07T08:43:15.714Z,2.10
2018-12-07T08:45:47.951Z,1.90
2018-12-07T08:48:25.684Z,1.97
2018-12-07T08:50:59.996Z,2.43
2018-12-07T08:53:37.474Z,2.07
2018-12-07T08:56:15.992Z,2.20
2018-12-07T08:58:47.128Z,2.70
2018-12-07T09:01:25.644Z,2.00
2018-12-07T09:03:59.208Z,1.73
2018-12-07T09:06:30.666Z,2.00
2018-12-07T09:09:01.927Z,1.50
2018-12-07T09:11:40.358Z,1.50
2018-12-07T09:14:11.347Z,1.30
2018-12-07T09:16:42.871Z,1.50
2018-12-07T09:19:14.558Z,1.20
2018-12-07T09:21:46.173Z,1.20
2018-12-07T09:24:17.794Z,1.50
2018-12-07T09:26:49.846Z,1.30
2018-12-07T09:29:29.900Z,1.30
2018-12-07T09:32:04.288Z,1.23
2018-12-07T09:34:35.782Z,1.60
2018-12-07T09:37:07.961Z,1.30
2018-12-07T09:39:39.065Z,1.60
2018-12-07T09:42:10.751Z,1.40
2018-12-07T09:44:42.440Z,1.30
2018-12-07T09:47:14.248Z,1.40
2018-12-07T09:49:45.641Z,1.40
2018-12-07T09:52:21.560Z,1.27
2018-12-07T09:54:54.928Z,1.50
2018-12-07T09:57:27.845Z,1.40
2018-12-07T10:00:00.910Z,1.20
2018-12-07T10:02:35.226Z,1.30
2018-12-07T10:05:09.225Z,1.17
2018-12-07T10:07:43.088Z,1.13
2018-12-07T10:10:14.412Z,1.00
2018-12-07T10:12:46.077Z,1.20
2018-12-07T10:15:17.524Z,0.97
2018-12-07T10:17:51.518Z,1.00
2018-12-07T10:20:22.506Z,1.07
2018-12-07T10:22:55.429Z,0.80
2018-12-07T10:25:34.945Z,1.07
2018-12-07T10:28:09.169Z,1.10
2018-12-07T10:30:46.976Z,1.10
2018-12-07T10:33:18.635Z,0.90
2018-12-07T10:35:51.413Z,0.90
2018-12-07T10:38:26.268Z,0.80
2018-12-07T10:41:00.480Z,0.90
2018-12-07T10:43:35.189Z,0.70
2018-12-07T10:46:06.690Z,0.87
2018-12-07T10:48:39.060Z,1.00
2018-12-07T10:51:10.861Z,0.70
2018-12-07T10:53:43.041Z,0.93
2018-12-07T10:56:14.600Z,0.60
2018-12-07T10:58:46.813Z,0.87
2018-12-07T11:01:26.723Z,0.83
2018-12-07T11:04:04.925Z,0.73
2018-12-07T11:06:41.895Z,0.80
2018-12-07T11:09:21.905Z,1.30
2018-12-07T11:12:01.243Z,0.90
2018-12-07T11:14:44.643Z,0.60
2018-12-07T11:17:23.903Z,0.80
2018-12-07T11:20:02.292Z,0.80
2018-12-07T11:22:41.733Z,0.70
2018-12-07T11:25:25.657Z,0.70
2018-12-07T11:28:03.253Z,1.00
2018-12-07T11:36:26.627Z,1.20
2018-12-07T11:39:07.036Z,1.50
2018-12-07T11:41:42.497Z,1.20
2018-12-07T11:44:20.216Z,1.00
2018-12-07T11:46:55.525Z,1.20
2018-12-07T11:49:30.797Z,1.00
2018-12-07T11:52:03.689Z,0.90
2018-12-07T11:54:38.947Z,1.00
2018-12-07T11:57:12.652Z,1.07
2018-12-07T11:59:44.595Z,1.30
2018-12-07T12:02:26.140Z,2.23
2018-12-07T12:04:53.973Z,1.50
2018-12-07T12:07:29.592Z,1.30
2018-12-07T12:10:06.245Z,1.20
2018-12-07T12:12:42.897Z,2.23
2018-12-07T12:15:16.203Z,1.20
2018-12-07T12:17:47.754Z,0.90
2018-12-07T12:20:22.157Z,1.40
2018-12-07T12:23:00.032Z,1.10
2018-12-07T12:25:32.906Z,0.80
2018-12-07T12:28:06.350Z,0.97
2018-12-07T12:30:46.732Z,0.70
2018-12-07T12:33:22.298Z,0.90
2018-12-07T12:36:00.777Z,1.00
2018-12-07T12:38:35.391Z,0.90
2018-12-07T12:41:15.374Z,1.00
2018-12-07T12:43:47.450Z,0.80
2018-12-07T12:46:25.256Z,0.80
2018-12-07T12:48:59.764Z,0.90
2018-12-07T12:51:30.937Z,1.10
2018-12-07T12:54:05.964Z,1.10
2018-12-07T12:56:37.178Z,1.50
2018-12-07T12:59:17.837Z,1.10
2018-12-07T13:01:49.494Z,1.30
2018-12-07T13:04:21.478Z,1.30
2018-12-07T13:06:53.800Z,1.67
2018-12-07T13:09:25.408Z,1.47
2018-12-07T13:11:59.120Z,1.70
2018-12-07T13:14:33.658Z,1.80
2018-12-07T13:17:05.793Z,1.37
2018-12-07T13:19:43.244Z,1.20
2018-12-07T13:22:23.267Z,1.23
2018-12-07T13:24:57.453Z,1.47
2018-12-07T13:27:28.433Z,1.40
2018-12-07T13:30:00.220Z,1.30
2018-12-07T13:32:34.138Z,1.30
2018-12-07T13:35:14.547Z,1.70
2018-12-07T13:37:48.266Z,1.50
2018-12-07T13:40:22.211Z,1.40
2018-12-07T13:42:54.162Z,1.50
2018-12-07T13:45:30.649Z,1.40
2018-12-07T13:48:03.553Z,1.43
2018-12-07T13:50:42.141Z,1.40
2018-12-07T13:53:16.686Z,1.50
2018-12-07T13:55:54.667Z,1.93
2018-12-07T13:58:26.111Z,1.63
2018-12-07T14:00:57.338Z,1.10
2018-12-07T14:03:38.353Z,1.67
2018-12-07T14:06:15.512Z,1.50
2018-12-07T14:08:47.940Z,1.67
2018-12-07T14:11:19.645Z,1.53
2018-12-07T14:13:54.534Z,1.43
2018-12-07T14:16:26.569Z,1.40
2018-12-07T14:18:59.010Z,1.30
2018-12-07T14:21:36.980Z,1.57
2018-12-07T14:24:16.731Z,1.70
2018-12-07T14:26:50.865Z,1.60
2018-12-07T14:29:29.832Z,1.50
2018-12-07T14:32:01.658Z,1.53
2018-12-07T14:34:36.412Z,1.23
2018-12-07T14:37:12.923Z,1.47
2018-12-07T14:39:45.257Z,1.70
2018-12-07T14:42:16.609Z,1.60
2018-12-07T14:44:49.411Z,1.40
2018-12-07T14:47:20.425Z,1.70
2018-12-07T14:49:51.814Z,1.30
2018-12-07T14:52:25.498Z,1.37
2018-12-07T14:54:58.260Z,2.13
2018-12-07T14:57:32.646Z,1.50
2018-12-07T15:00:08.242Z,1.83
2018-12-07T15:02:39.251Z,2.00
2018-12-07T15:05:11.142Z,1.30
2018-12-07T15:07:43.246Z,1.37
2018-12-07T15:10:15.697Z,1.60
2018-12-07T15:12:47.311Z,1.10
2018-12-07T15:15:19.677Z,0.90
2018-12-07T15:17:51.199Z,1.10
2018-12-07T15:20:24.581Z,1.17
2018-12-07T15:22:56.180Z,1.20
2018-12-07T15:25:33.401Z,1.30
2018-12-07T15:28:07.104Z,1.50
2018-12-07T15:30:39.148Z,1.40
2018-12-07T15:33:14.803Z,1.33
2018-12-07T15:35:47.205Z,1.10
2018-12-07T15:38:18.699Z,1.40
2018-12-07T15:40:50.128Z,1.87
2018-12-07T15:43:21.662Z,1.83
2018-12-07T15:45:53.255Z,1.30
2018-12-07T15:48:27.160Z,1.80
2018-12-07T15:50:59.129Z,1.70
2018-12-07T15:53:30.570Z,1.13
2018-12-07T15:56:03.392Z,1.60
2018-12-07T15:58:34.507Z,1.03
2018-12-07T16:01:09.317Z,1.53
2018-12-07T16:03:43.794Z,1.40
2018-12-07T16:06:18.096Z,1.37
2018-12-07T16:08:51.636Z,1.53
2018-12-07T16:11:23.959Z,1.80
2018-12-07T16:13:55.227Z,1.60
2018-12-07T16:16:30.004Z,2.10
2018-12-07T16:19:01.827Z,1.80
2018-12-07T16:21:36.635Z,2.67
2018-12-07T16:24:08.194Z,2.40
2018-12-07T16:26:39.735Z,1.83
2018-12-07T16:29:11.473Z,1.73
2018-12-07T16:31:48.331Z,1.73
2018-12-07T16:34:22.590Z,1.60
2018-12-07T16:36:54.397Z,1.90
2018-12-07T16:39:25.765Z,1.80
2018-12-07T16:41:57.423Z,2.07
2018-12-07T16:44:28.732Z,1.97
2018-12-07T16:47:02.578Z,1.87
2018-12-07T16:49:34.785Z,2.10
2018-12-07T16:52:07.554Z,1.80
2018-12-07T16:54:40.206Z,1.90
2018-12-07T16:57:13.268Z,2.50
2018-12-07T16:59:45.490Z,2.20
2018-12-07T17:02:18.549Z,2.63
2018-12-07T17:04:52.887Z,3.57
2018-12-07T17:07:28.852Z,3.90
2018-12-07T17:10:03.326Z,4.10
2018-12-07T17:12:35.427Z,4.50
2018-12-07T17:15:07.280Z,4.23
2018-12-07T17:17:39.225Z,3.47
2018-12-07T17:20:11.614Z,3.80
2018-12-07T17:22:44.025Z,3.97
2018-12-07T17:25:18.218Z,3.10
2018-12-07T17:27:58.378Z,3.03
2018-12-07T17:30:33.137Z,3.60
2018-12-07T17:33:11.794Z,3.73
2018-12-07T17:35:46.622Z,4.13
2018-12-07T17:38:22.848Z,4.17
2018-12-07T17:40:56.950Z,3.73
2018-12-07T17:43:32.033Z,4.37
2018-12-07T17:46:08.278Z,2.17
2018-12-07T17:48:40.952Z,2.10
2018-12-07T17:51:13.553Z,2.23
2018-12-07T17:53:46.018Z,2.07
2018-12-07T17:56:36.016Z,1.90
2018-12-07T17:59:25.683Z,2.00
2018-12-07T18:02:09.451Z,2.10
2018-12-07T18:04:42.687Z,1.93
2018-12-07T18:07:30.600Z,1.60
2018-12-07T18:10:14.846Z,2.13
2018-12-07T18:12:55.793Z,2.10
2018-12-07T18:15:29.900Z,2.57
2018-12-07T18:18:02.376Z,1.80
2018-12-07T18:20:45.621Z,1.83
2018-12-07T18:23:17.536Z,2.17
2018-12-07T18:25:52.524Z,1.90
2018-12-07T18:28:25.544Z,1.93
2018-12-07T18:33:57.829Z,2.13
2018-12-07T18:36:37.043Z,2.00
2018-12-07T18:39:10.250Z,2.07
2018-12-07T18:41:44.351Z,2.27
2018-12-07T18:44:25.014Z,2.73
2018-12-07T18:46:59.883Z,2.97
2018-12-07T18:49:34.393Z,2.73
2018-12-07T18:52:12.821Z,2.63
2018-12-07T18:54:47.012Z,3.17
2018-12-07T18:57:28.308Z,3.33
2018-12-07T18:59:59.967Z,3.30
2018-12-07T19:02:33.598Z,3.87
2018-12-07T19:05:06.705Z,2.70
2018-12-07T19:07:38.814Z,4.37
2018-12-07T19:13:05.984Z,11.83
2018-12-07T19:15:50.351Z,4.77
2018-12-07T19:18:25.175Z,3.97
2018-12-07T19:20:59.666Z,3.53
2018-12-07T19:23:33.222Z,3.10
2018-12-07T19:26:07.630Z,3.13
2018-12-07T19:28:45.801Z,3.67
2018-12-07T19:31:18.586Z,3.13
2018-12-07T19:33:52.316Z,3.63
2018-12-07T19:36:26.975Z,3.20
2018-12-07T19:38:58.666Z,3.23
2018-12-07T19:41:30.040Z,3.20
2018-12-07T19:44:04.936Z,2.87
2018-12-07T19:46:36.434Z,3.47
2018-12-07T19:49:11.316Z,3.23
2018-12-07T19:51:44.643Z,3.10
2018-12-07T19:54:16.684Z,3.57
2018-12-07T19:56:48.501Z,3.30
2018-12-07T19:59:20.990Z,3.27
2018-12-07T20:01:53.806Z,3.60
2018-12-07T20:04:32.001Z,3.73
2018-12-07T20:07:03.992Z,4.10
2018-12-07T20:09:36.947Z,3.20
2018-12-07T20:12:10.592Z,3.00
2018-12-07T20:14:49.727Z,4.00
2018-12-07T20:17:22.186Z,3.63
2018-12-07T20:19:54.197Z,2.83
2018-12-07T20:22:31.208Z,3.23
2018-12-07T20:25:04.704Z,3.20
2018-12-07T20:27:38.542Z,3.13
2018-12-07T20:30:11.830Z,2.87
2018-12-07T20:32:49.566Z,3.43
2018-12-07T20:35:25.840Z,2.50
2018-12-07T20:38:09.368Z,3.10
2018-12-07T20:40:46.230Z,3.30
2018-12-07T20:43:26.406Z,3.17
2018-12-07T20:45:59.730Z,2.43
2018-12-07T20:48:32.948Z,2.30
2018-12-07T20:51:07.668Z,2.60
2018-12-07T20:53:39.124Z,2.50
2018-12-07T20:56:11.045Z,2.67
2018-12-07T20:58:42.723Z,3.23
2018-12-07T21:01:21.386Z,2.80
2018-12-07T21:04:58.300Z,2.53
2018-12-07T21:08:08.887Z,3.40
2018-12-07T21:11:03.250Z,2.90
2018-12-07T21:13:51.589Z,2.20
2018-12-07T21:17:32.788Z,2.70
2018-12-07T21:20:23.077Z,2.33
2018-12-07T21:22:55.372Z,2.43
2018-12-07T21:25:32.310Z,2.20
2018-12-07T21:28:04.307Z,2.77
2018-12-07T21:30:54.368Z,2.80
2018-12-07T21:33:40.190Z,2.73
2018-12-07T21:36:34.717Z,2.50
2018-12-07T21:39:17.377Z,2.60
2018-12-07T21:42:00.077Z,2.10
2018-12-07T21:44:36.998Z,2.80
2018-12-07T21:47:13.473Z,2.37
2018-12-07T21:49:59.001Z,2.40
2018-12-07T21:52:45.848Z,2.20
2018-12-07T21:55:25.495Z,3.13
2018-12-07T21:58:06.654Z,3.03
2018-12-07T22:03:32.548Z,2.20
2018-12-07T22:06:20.002Z,2.53
2018-12-07T22:08:52.075Z,2.27
2018-12-07T22:11:28.873Z,2.63
2018-12-07T22:14:04.417Z,2.20
2018-12-07T22:16:42.239Z,2.40
2018-12-07T22:19:17.846Z,2.53
2018-12-07T22:21:58.279Z,3.20
2018-12-07T22:24:33.545Z,2.70
2018-12-07T22:27:14.779Z,2.47
2018-12-07T22:29:54.127Z,2.40
2018-12-07T22:32:35.152Z,2.97
2018-12-07T22:35:16.745Z,2.30
2018-12-07T22:37:58.167Z,2.50
2018-12-07T22:56:26.573Z,3.00
2018-12-07T22:59:09.729Z,3.20
2018-12-07T23:01:51.451Z,2.70
2018-12-07T23:07:20.310Z,3.07
2018-12-07T23:09:55.517Z,2.70
2018-12-07T23:12:27.488Z,2.43
2018-12-07T23:15:09.144Z,2.93
2018-12-07T23:17:44.122Z,3.00
2018-12-07T23:20:28.646Z,2.97
2018-12-07T23:23:30.886Z,2.70
2018-12-07T23:26:13.689Z,2.97
2018-12-07T23:29:05.809Z,2.40
2018-12-07T23:31:47.579Z,2.83
2018-12-07T23:34:24.709Z,2.93
2018-12-07T23:37:08.545Z,2.70
2018-12-07T23:39:44.707Z,2.80
2018-12-07T23:42:20.583Z,2.70
2018-12-07T23:44:56.211Z,3.17
2018-12-07T23:47:35.098Z,2.90
2018-12-07T23:50:11.305Z,2.30
2018-12-07T23:52:52.351Z,3.23
2018-12-07T23:55:27.584Z,2.97
2018-12-07T23:58:08.791Z,2.50
